sensor_id;sensor_type;location;lat;lon;timestamp;P1;durP1;ratioP1;P2;durP2;ratioP2
20044;SDS011;10183;47.808;9.476;2024-03-29T00:01:46;24.80;;;22.70;;
20044;SDS011;10183;47.808;9.476;2024-03-29T00:04:11;24.50;;;22.40;;
20044;SDS011;10183;47.808;9.476;2024-03-29T00:06:37;25.70;;;23.40;;
20044;SDS011;10183;47.808;9.476;2024-03-29T00:09:03;25.27;;;23.17;;
20044;SDS011;10183;47.808;9.476;2024-03-29T00:11:28;26.77;;;24.47;;
20044;SDS011;10183;47.808;9.476;2024-03-29T00:13:56;26.70;;;24.23;;
20044;SDS011;10183;47.808;9.476;2024-03-29T00:16:22;24.67;;;22.57;;
20044;SDS011;10183;47.808;9.476;2024-03-29T00:18:50;25.37;;;23.10;;
20044;SDS011;10183;47.808;9.476;2024-03-29T00:21:19;24.90;;;22.80;;
20044;SDS011;10183;47.808;9.476;2024-03-29T00:23:44;24.77;;;22.73;;
20044;SDS011;10183;47.808;9.476;2024-03-29T00:26:10;28.90;;;26.33;;
20044;SDS011;10183;47.808;9.476;2024-03-29T00:28:37;26.50;;;24.30;;
20044;SDS011;10183;47.808;9.476;2024-03-29T00:31:04;28.63;;;26.27;;
20044;SDS011;10183;47.808;9.476;2024-03-29T00:33:30;27.90;;;25.60;;
20044;SDS011;10183;47.808;9.476;2024-03-29T00:35:55;24.90;;;22.80;;
20044;SDS011;10183;47.808;9.476;2024-03-29T00:38:21;25.00;;;23.00;;
20044;SDS011;10183;47.808;9.476;2024-03-29T00:40:47;26.20;;;24.07;;
20044;SDS011;10183;47.808;9.476;2024-03-29T00:43:13;24.70;;;22.43;;
20044;SDS011;10183;47.808;9.476;2024-03-29T00:45:38;25.63;;;23.53;;
20044;SDS011;10183;47.808;9.476;2024-03-29T00:48:05;25.03;;;22.93;;
20044;SDS011;10183;47.808;9.476;2024-03-29T00:50:31;25.83;;;23.63;;
20044;SDS011;10183;47.808;9.476;2024-03-29T00:52:56;26.20;;;24.00;;
20044;SDS011;10183;47.808;9.476;2024-03-29T00:55:22;26.77;;;24.53;;
20044;SDS011;10183;47.808;9.476;2024-03-29T00:57:47;26.03;;;23.90;;
20044;SDS011;10183;47.808;9.476;2024-03-29T01:00:13;26.20;;;24.00;;
20044;SDS011;10183;47.808;9.476;2024-03-29T01:02:39;25.33;;;23.23;;
20044;SDS011;10183;47.808;9.476;2024-03-29T01:05:05;28.33;;;25.70;;
20044;SDS011;10183;47.808;9.476;2024-03-29T01:07:32;26.70;;;24.50;;
20044;SDS011;10183;47.808;9.476;2024-03-29T01:09:58;27.57;;;25.27;;
20044;SDS011;10183;47.808;9.476;2024-03-29T01:12:23;26.60;;;24.50;;
20044;SDS011;10183;47.808;9.476;2024-03-29T01:14:49;25.90;;;23.80;;
20044;SDS011;10183;47.808;9.476;2024-03-29T01:17:15;25.90;;;23.60;;
20044;SDS011;10183;47.808;9.476;2024-03-29T01:19:41;24.77;;;22.77;;
20044;SDS011;10183;47.808;9.476;2024-03-29T01:22:06;25.90;;;23.53;;
20044;SDS011;10183;47.808;9.476;2024-03-29T01:24:33;26.50;;;24.30;;
20044;SDS011;10183;47.808;9.476;2024-03-29T01:26:59;27.27;;;24.97;;
20044;SDS011;10183;47.808;9.476;2024-03-29T01:29:24;26.67;;;24.57;;
20044;SDS011;10183;47.808;9.476;2024-03-29T01:31:50;25.00;;;23.00;;
20044;SDS011;10183;47.808;9.476;2024-03-29T01:34:16;24.53;;;22.57;;
20044;SDS011;10183;47.808;9.476;2024-03-29T01:36:43;25.43;;;23.43;;
20044;SDS011;10183;47.808;9.476;2024-03-29T01:39:09;25.07;;;23.07;;
20044;SDS011;10183;47.808;9.476;2024-03-29T01:41:39;26.90;;;24.80;;
20044;SDS011;10183;47.808;9.476;2024-03-29T01:44:04;26.97;;;24.87;;
20044;SDS011;10183;47.808;9.476;2024-03-29T01:46:30;25.80;;;23.80;;
20044;SDS011;10183;47.808;9.476;2024-03-29T01:49:00;27.43;;;25.33;;
20044;SDS011;10183;47.808;9.476;2024-03-29T01:51:26;27.50;;;25.23;;
20044;SDS011;10183;47.808;9.476;2024-03-29T01:53:53;27.50;;;25.40;;
20044;SDS011;10183;47.808;9.476;2024-03-29T01:56:20;28.40;;;26.20;;
20044;SDS011;10183;47.808;9.476;2024-03-29T01:58:49;28.17;;;25.97;;
20044;SDS011;10183;47.808;9.476;2024-03-29T02:01:17;26.37;;;24.27;;
20044;SDS011;10183;47.808;9.476;2024-03-29T02:03:44;25.13;;;23.13;;
20044;SDS011;10183;47.808;9.476;2024-03-29T02:06:10;25.07;;;22.97;;
20044;SDS011;10183;47.808;9.476;2024-03-29T02:08:37;26.30;;;24.00;;
20044;SDS011;10183;47.808;9.476;2024-03-29T02:11:04;24.27;;;22.27;;
20044;SDS011;10183;47.808;9.476;2024-03-29T02:13:30;23.53;;;21.63;;
20044;SDS011;10183;47.808;9.476;2024-03-29T02:15:57;23.93;;;21.93;;
20044;SDS011;10183;47.808;9.476;2024-03-29T02:18:22;24.97;;;22.87;;
20044;SDS011;10183;47.808;9.476;2024-03-29T02:20:48;24.63;;;22.63;;
20044;SDS011;10183;47.808;9.476;2024-03-29T02:23:26;24.60;;;22.60;;
20044;SDS011;10183;47.808;9.476;2024-03-29T02:25:54;24.20;;;22.30;;
20044;SDS011;10183;47.808;9.476;2024-03-29T02:28:21;23.63;;;21.77;;
20044;SDS011;10183;47.808;9.476;2024-03-29T02:30:47;25.57;;;23.50;;
20044;SDS011;10183;47.808;9.476;2024-03-29T02:33:14;27.83;;;25.63;;
20044;SDS011;10183;47.808;9.476;2024-03-29T02:35:39;27.20;;;25.10;;
20044;SDS011;10183;47.808;9.476;2024-03-29T02:38:05;27.00;;;24.80;;
20044;SDS011;10183;47.808;9.476;2024-03-29T02:40:30;27.20;;;24.90;;
20044;SDS011;10183;47.808;9.476;2024-03-29T02:42:56;28.80;;;26.50;;
20044;SDS011;10183;47.808;9.476;2024-03-29T02:45:22;28.67;;;26.37;;
20044;SDS011;10183;47.808;9.476;2024-03-29T02:47:47;27.13;;;24.93;;
20044;SDS011;10183;47.808;9.476;2024-03-29T02:50:14;27.93;;;25.73;;
20044;SDS011;10183;47.808;9.476;2024-03-29T02:52:40;27.67;;;25.47;;
20044;SDS011;10183;47.808;9.476;2024-03-29T02:55:06;28.30;;;25.90;;
20044;SDS011;10183;47.808;9.476;2024-03-29T02:57:32;26.60;;;24.40;;
20044;SDS011;10183;47.808;9.476;2024-03-29T02:59:58;26.53;;;24.23;;
20044;SDS011;10183;47.808;9.476;2024-03-29T03:02:23;26.40;;;24.23;;
20044;SDS011;10183;47.808;9.476;2024-03-29T03:04:49;26.93;;;24.73;;
20044;SDS011;10183;47.808;9.476;2024-03-29T03:07:14;27.87;;;25.67;;
20044;SDS011;10183;47.808;9.476;2024-03-29T03:09:59;25.63;;;23.43;;
20044;SDS011;10183;47.808;9.476;2024-03-29T03:12:43;24.90;;;22.80;;
20044;SDS011;10183;47.808;9.476;2024-03-29T03:15:09;26.63;;;24.33;;
20044;SDS011;10183;47.808;9.476;2024-03-29T03:17:34;25.30;;;23.20;;
20044;SDS011;10183;47.808;9.476;2024-03-29T03:20:00;27.60;;;25.33;;
20044;SDS011;10183;47.808;9.476;2024-03-29T03:22:25;28.17;;;25.77;;
20044;SDS011;10183;47.808;9.476;2024-03-29T03:24:51;28.60;;;26.20;;
20044;SDS011;10183;47.808;9.476;2024-03-29T03:27:17;26.87;;;24.57;;
20044;SDS011;10183;47.808;9.476;2024-03-29T03:29:42;25.13;;;23.03;;
20044;SDS011;10183;47.808;9.476;2024-03-29T03:32:08;26.23;;;24.03;;
20044;SDS011;10183;47.808;9.476;2024-03-29T03:34:34;26.67;;;24.57;;
20044;SDS011;10183;47.808;9.476;2024-03-29T03:36:59;25.97;;;23.87;;
20044;SDS011;10183;47.808;9.476;2024-03-29T03:39:25;25.10;;;23.00;;
20044;SDS011;10183;47.808;9.476;2024-03-29T03:41:51;25.40;;;23.10;;
20044;SDS011;10183;47.808;9.476;2024-03-29T03:44:16;24.57;;;22.57;;
20044;SDS011;10183;47.808;9.476;2024-03-29T03:46:42;25.00;;;23.00;;
20044;SDS011;10183;47.808;9.476;2024-03-29T03:49:07;25.50;;;23.40;;
20044;SDS011;10183;47.808;9.476;2024-03-29T03:51:33;27.20;;;24.90;;
20044;SDS011;10183;47.808;9.476;2024-03-29T03:53:59;27.83;;;25.63;;
20044;SDS011;10183;47.808;9.476;2024-03-29T03:56:24;26.97;;;24.80;;
20044;SDS011;10183;47.808;9.476;2024-03-29T03:58:50;28.60;;;26.30;;
20044;SDS011;10183;47.808;9.476;2024-03-29T04:01:16;30.17;;;27.77;;
20044;SDS011;10183;47.808;9.476;2024-03-29T04:03:41;28.10;;;25.80;;
20044;SDS011;10183;47.808;9.476;2024-03-29T04:06:07;28.53;;;26.13;;
20044;SDS011;10183;47.808;9.476;2024-03-29T04:08:33;29.20;;;26.70;;
20044;SDS011;10183;47.808;9.476;2024-03-29T04:11:02;28.17;;;25.77;;
20044;SDS011;10183;47.808;9.476;2024-03-29T04:13:28;29.10;;;26.40;;
20044;SDS011;10183;47.808;9.476;2024-03-29T04:16:01;27.30;;;25.10;;
20044;SDS011;10183;47.808;9.476;2024-03-29T04:18:27;27.53;;;25.33;;
20044;SDS011;10183;47.808;9.476;2024-03-29T04:20:59;27.13;;;24.93;;
20044;SDS011;10183;47.808;9.476;2024-03-29T04:23:26;27.10;;;24.90;;
20044;SDS011;10183;47.808;9.476;2024-03-29T04:25:52;26.40;;;24.20;;
20044;SDS011;10183;47.808;9.476;2024-03-29T04:28:19;26.80;;;24.37;;
20044;SDS011;10183;47.808;9.476;2024-03-29T04:30:54;27.63;;;25.23;;
20044;SDS011;10183;47.808;9.476;2024-03-29T04:33:20;27.80;;;25.50;;
20044;SDS011;10183;47.808;9.476;2024-03-29T04:35:59;28.20;;;25.80;;
20044;SDS011;10183;47.808;9.476;2024-03-29T04:38:28;27.10;;;24.80;;
20044;SDS011;10183;47.808;9.476;2024-03-29T04:40:55;26.63;;;24.17;;
20044;SDS011;10183;47.808;9.476;2024-03-29T04:43:23;28.40;;;25.90;;
20044;SDS011;10183;47.808;9.476;2024-03-29T04:45:50;26.53;;;24.23;;
20044;SDS011;10183;47.808;9.476;2024-03-29T04:48:26;26.70;;;24.40;;
20044;SDS011;10183;47.808;9.476;2024-03-29T04:50:51;26.67;;;24.37;;
20044;SDS011;10183;47.808;9.476;2024-03-29T04:53:17;27.87;;;25.37;;
20044;SDS011;10183;47.808;9.476;2024-03-29T04:55:42;34.03;;;30.33;;
20044;SDS011;10183;47.808;9.476;2024-03-29T04:58:10;30.97;;;26.60;;
20044;SDS011;10183;47.808;9.476;2024-03-29T05:00:35;34.70;;;31.30;;
20044;SDS011;10183;47.808;9.476;2024-03-29T05:03:01;33.27;;;29.93;;
20044;SDS011;10183;47.808;9.476;2024-03-29T05:05:27;30.93;;;27.63;;
20044;SDS011;10183;47.808;9.476;2024-03-29T05:07:52;29.37;;;26.17;;
20044;SDS011;10183;47.808;9.476;2024-03-29T05:10:18;32.43;;;28.80;;
20044;SDS011;10183;47.808;9.476;2024-03-29T05:12:44;29.53;;;24.90;;
20044;SDS011;10183;47.808;9.476;2024-03-29T05:15:10;28.00;;;24.53;;
20044;SDS011;10183;47.808;9.476;2024-03-29T05:17:36;35.50;;;32.40;;
20044;SDS011;10183;47.808;9.476;2024-03-29T05:20:02;31.97;;;29.37;;
20044;SDS011;10183;47.808;9.476;2024-03-29T05:22:29;29.90;;;27.20;;
20044;SDS011;10183;47.808;9.476;2024-03-29T05:24:55;30.37;;;27.70;;
20044;SDS011;10183;47.808;9.476;2024-03-29T05:27:20;30.67;;;28.07;;
20044;SDS011;10183;47.808;9.476;2024-03-29T05:29:46;30.27;;;27.53;;
20044;SDS011;10183;47.808;9.476;2024-03-29T05:32:12;29.43;;;26.83;;
20044;SDS011;10183;47.808;9.476;2024-03-29T05:34:37;32.97;;;29.83;;
20044;SDS011;10183;47.808;9.476;2024-03-29T05:37:03;29.53;;;26.67;;
20044;SDS011;10183;47.808;9.476;2024-03-29T05:39:30;26.57;;;24.17;;
20044;SDS011;10183;47.808;9.476;2024-03-29T05:41:55;27.40;;;24.70;;
20044;SDS011;10183;47.808;9.476;2024-03-29T05:44:21;28.10;;;25.30;;
20044;SDS011;10183;47.808;9.476;2024-03-29T05:46:47;28.93;;;25.83;;
20044;SDS011;10183;47.808;9.476;2024-03-29T05:49:14;29.13;;;26.13;;
20044;SDS011;10183;47.808;9.476;2024-03-29T05:51:39;29.13;;;26.17;;
20044;SDS011;10183;47.808;9.476;2024-03-29T05:54:05;32.57;;;29.37;;
20044;SDS011;10183;47.808;9.476;2024-03-29T05:56:31;28.27;;;25.27;;
20044;SDS011;10183;47.808;9.476;2024-03-29T05:58:57;31.47;;;28.10;;
20044;SDS011;10183;47.808;9.476;2024-03-29T06:01:22;26.93;;;23.43;;
20044;SDS011;10183;47.808;9.476;2024-03-29T06:03:48;26.50;;;23.70;;
20044;SDS011;10183;47.808;9.476;2024-03-29T06:06:17;30.10;;;25.70;;
20044;SDS011;10183;47.808;9.476;2024-03-29T06:08:47;30.10;;;26.90;;
20044;SDS011;10183;47.808;9.476;2024-03-29T06:11:12;35.70;;;31.80;;
20044;SDS011;10183;47.808;9.476;2024-03-29T06:13:38;29.00;;;25.90;;
20044;SDS011;10183;47.808;9.476;2024-03-29T06:16:24;32.37;;;28.93;;
20044;SDS011;10183;47.808;9.476;2024-03-29T06:19:09;33.87;;;30.13;;
20044;SDS011;10183;47.808;9.476;2024-03-29T06:21:34;30.90;;;27.60;;
20044;SDS011;10183;47.808;9.476;2024-03-29T06:24:11;41.43;;;37.10;;
20044;SDS011;10183;47.808;9.476;2024-03-29T06:26:37;33.13;;;29.53;;
20044;SDS011;10183;47.808;9.476;2024-03-29T06:29:04;36.37;;;32.47;;
20044;SDS011;10183;47.808;9.476;2024-03-29T06:31:30;31.80;;;28.50;;
20044;SDS011;10183;47.808;9.476;2024-03-29T06:33:59;31.03;;;27.83;;
20044;SDS011;10183;47.808;9.476;2024-03-29T06:36:25;30.00;;;27.00;;
20044;SDS011;10183;47.808;9.476;2024-03-29T06:38:52;37.87;;;34.07;;
20044;SDS011;10183;47.808;9.476;2024-03-29T06:41:18;35.57;;;28.83;;
20044;SDS011;10183;47.808;9.476;2024-03-29T06:43:44;47.07;;;42.27;;
20044;SDS011;10183;47.808;9.476;2024-03-29T06:46:10;38.23;;;34.20;;
20044;SDS011;10183;47.808;9.476;2024-03-29T06:48:39;33.37;;;29.77;;
20044;SDS011;10183;47.808;9.476;2024-03-29T06:51:05;35.67;;;30.53;;
20044;SDS011;10183;47.808;9.476;2024-03-29T06:53:30;38.47;;;34.47;;
20044;SDS011;10183;47.808;9.476;2024-03-29T06:55:56;45.37;;;40.67;;
20044;SDS011;10183;47.808;9.476;2024-03-29T06:58:22;43.80;;;39.03;;
20044;SDS011;10183;47.808;9.476;2024-03-29T07:00:48;47.30;;;42.70;;
20044;SDS011;10183;47.808;9.476;2024-03-29T07:03:15;54.40;;;48.90;;
20044;SDS011;10183;47.808;9.476;2024-03-29T07:05:41;54.13;;;48.70;;
20044;SDS011;10183;47.808;9.476;2024-03-29T07:08:07;55.53;;;49.77;;
20044;SDS011;10183;47.808;9.476;2024-03-29T07:10:33;47.00;;;42.30;;
20044;SDS011;10183;47.808;9.476;2024-03-29T07:12:58;50.43;;;45.43;;
20044;SDS011;10183;47.808;9.476;2024-03-29T07:15:24;56.73;;;51.00;;
20044;SDS011;10183;47.808;9.476;2024-03-29T07:17:49;56.07;;;50.13;;
20044;SDS011;10183;47.808;9.476;2024-03-29T07:20:16;52.87;;;47.23;;
20044;SDS011;10183;47.808;9.476;2024-03-29T07:22:42;35.27;;;31.47;;
20044;SDS011;10183;47.808;9.476;2024-03-29T07:25:07;53.73;;;47.07;;
20044;SDS011;10183;47.808;9.476;2024-03-29T07:27:33;42.13;;;37.63;;
20044;SDS011;10183;47.808;9.476;2024-03-29T07:30:01;51.57;;;45.77;;
20044;SDS011;10183;47.808;9.476;2024-03-29T07:32:29;59.90;;;53.60;;
20044;SDS011;10183;47.808;9.476;2024-03-29T07:34:55;53.13;;;47.27;;
20044;SDS011;10183;47.808;9.476;2024-03-29T07:37:23;56.63;;;50.73;;
20044;SDS011;10183;47.808;9.476;2024-03-29T07:39:49;62.60;;;56.03;;
20044;SDS011;10183;47.808;9.476;2024-03-29T07:42:15;47.30;;;42.17;;
20044;SDS011;10183;47.808;9.476;2024-03-29T07:44:41;44.23;;;39.10;;
20044;SDS011;10183;47.808;9.476;2024-03-29T07:47:07;45.50;;;39.47;;
20044;SDS011;10183;47.808;9.476;2024-03-29T07:49:33;60.97;;;53.27;;
20044;SDS011;10183;47.808;9.476;2024-03-29T07:51:58;71.60;;;62.77;;
20044;SDS011;10183;47.808;9.476;2024-03-29T07:54:27;59.93;;;53.60;;
20044;SDS011;10183;47.808;9.476;2024-03-29T07:56:53;68.87;;;61.80;;
20044;SDS011;10183;47.808;9.476;2024-03-29T07:59:19;61.47;;;54.83;;
20044;SDS011;10183;47.808;9.476;2024-03-29T08:01:45;63.83;;;57.10;;
20044;SDS011;10183;47.808;9.476;2024-03-29T08:04:11;57.13;;;51.03;;
20044;SDS011;10183;47.808;9.476;2024-03-29T08:06:37;54.33;;;48.67;;
20044;SDS011;10183;47.808;9.476;2024-03-29T08:09:02;57.87;;;51.73;;
20044;SDS011;10183;47.808;9.476;2024-03-29T08:11:28;42.73;;;37.93;;
20044;SDS011;10183;47.808;9.476;2024-03-29T08:13:54;30.23;;;25.80;;
20044;SDS011;10183;47.808;9.476;2024-03-29T08:16:20;42.37;;;37.87;;
20044;SDS011;10183;47.808;9.476;2024-03-29T08:18:45;50.20;;;45.20;;
20044;SDS011;10183;47.808;9.476;2024-03-29T08:21:14;46.00;;;41.30;;
20044;SDS011;10183;47.808;9.476;2024-03-29T08:23:40;37.90;;;34.03;;
20044;SDS011;10183;47.808;9.476;2024-03-29T08:26:09;37.40;;;33.60;;
20044;SDS011;10183;47.808;9.476;2024-03-29T08:28:35;35.93;;;32.37;;
20044;SDS011;10183;47.808;9.476;2024-03-29T08:31:06;38.57;;;34.77;;
20044;SDS011;10183;47.808;9.476;2024-03-29T08:33:35;37.90;;;34.10;;
20044;SDS011;10183;47.808;9.476;2024-03-29T08:36:07;33.57;;;30.03;;
20044;SDS011;10183;47.808;9.476;2024-03-29T08:38:33;36.70;;;32.97;;
20044;SDS011;10183;47.808;9.476;2024-03-29T08:41:00;37.93;;;34.03;;
20044;SDS011;10183;47.808;9.476;2024-03-29T08:43:26;40.00;;;35.80;;
20044;SDS011;10183;47.808;9.476;2024-03-29T08:45:52;39.30;;;35.30;;
20044;SDS011;10183;47.808;9.476;2024-03-29T08:48:17;26.90;;;23.30;;
20044;SDS011;10183;47.808;9.476;2024-03-29T08:50:43;28.10;;;23.27;;
20044;SDS011;10183;47.808;9.476;2024-03-29T08:53:09;29.10;;;26.00;;
20044;SDS011;10183;47.808;9.476;2024-03-29T08:55:35;28.77;;;22.33;;
20044;SDS011;10183;47.808;9.476;2024-03-29T08:58:03;31.70;;;28.40;;
20044;SDS011;10183;47.808;9.476;2024-03-29T09:00:29;33.67;;;30.07;;
20044;SDS011;10183;47.808;9.476;2024-03-29T09:02:55;50.17;;;41.23;;
20044;SDS011;10183;47.808;9.476;2024-03-29T09:05:21;28.50;;;25.40;;
20044;SDS011;10183;47.808;9.476;2024-03-29T09:07:48;36.23;;;32.33;;
20044;SDS011;10183;47.808;9.476;2024-03-29T09:10:14;32.27;;;28.80;;
20044;SDS011;10183;47.808;9.476;2024-03-29T09:12:41;35.93;;;32.07;;
20044;SDS011;10183;47.808;9.476;2024-03-29T09:15:06;34.80;;;31.10;;
20044;SDS011;10183;47.808;9.476;2024-03-29T09:17:39;45.53;;;40.47;;
20044;SDS011;10183;47.808;9.476;2024-03-29T09:20:05;37.83;;;32.10;;
20044;SDS011;10183;47.808;9.476;2024-03-29T09:22:32;42.13;;;35.70;;
20044;SDS011;10183;47.808;9.476;2024-03-29T09:24:58;51.60;;;45.37;;
20044;SDS011;10183;47.808;9.476;2024-03-29T09:27:24;35.30;;;31.50;;
20044;SDS011;10183;47.808;9.476;2024-03-29T09:29:52;28.90;;;23.30;;
20044;SDS011;10183;47.808;9.476;2024-03-29T09:32:17;34.17;;;30.33;;
20044;SDS011;10183;47.808;9.476;2024-03-29T09:34:45;31.13;;;25.57;;
20044;SDS011;10183;47.808;9.476;2024-03-29T09:37:11;33.73;;;27.73;;
20044;SDS011;10183;47.808;9.476;2024-03-29T09:39:36;42.20;;;37.58;;
20044;SDS011;10183;47.808;9.476;2024-03-29T09:42:02;28.73;;;22.40;;
20044;SDS011;10183;47.808;9.476;2024-03-29T09:44:31;31.67;;;26.23;;
20044;SDS011;10183;47.808;9.476;2024-03-29T09:46:59;41.47;;;34.65;;
20044;SDS011;10183;47.808;9.476;2024-03-29T09:49:28;38.17;;;29.75;;
20044;SDS011;10183;47.808;9.476;2024-03-29T09:51:58;36.65;;;32.70;;
20044;SDS011;10183;47.808;9.476;2024-03-29T09:54:26;42.13;;;37.22;;
20044;SDS011;10183;47.808;9.476;2024-03-29T09:56:55;77.20;;;63.97;;
20044;SDS011;10183;47.808;9.476;2024-03-29T09:59:22;61.10;;;54.50;;
20044;SDS011;10183;47.808;9.476;2024-03-29T10:01:50;51.10;;;44.90;;
20044;SDS011;10183;47.808;9.476;2024-03-29T10:04:17;45.45;;;39.97;;
20044;SDS011;10183;47.808;9.476;2024-03-29T10:06:46;45.50;;;39.25;;
20044;SDS011;10183;47.808;9.476;2024-03-29T10:09:17;60.13;;;53.53;;
20044;SDS011;10183;47.808;9.476;2024-03-29T10:11:44;43.08;;;37.55;;
20044;SDS011;10183;47.808;9.476;2024-03-29T10:14:10;69.03;;;61.08;;
20044;SDS011;10183;47.808;9.476;2024-03-29T10:16:36;55.10;;;49.20;;
20044;SDS011;10183;47.808;9.476;2024-03-29T10:19:02;52.75;;;45.40;;
20044;SDS011;10183;47.808;9.476;2024-03-29T10:21:28;69.82;;;62.22;;
20044;SDS011;10183;47.808;9.476;2024-03-29T10:23:54;41.53;;;35.75;;
20044;SDS011;10183;47.808;9.476;2024-03-29T10:26:20;68.07;;;59.83;;
20044;SDS011;10183;47.808;9.476;2024-03-29T10:28:50;64.00;;;57.05;;
20044;SDS011;10183;47.808;9.476;2024-03-29T10:31:23;49.53;;;44.35;;
20044;SDS011;10183;47.808;9.476;2024-03-29T10:33:49;39.83;;;34.35;;
20044;SDS011;10183;47.808;9.476;2024-03-29T10:36:17;35.63;;;31.73;;
20044;SDS011;10183;47.808;9.476;2024-03-29T10:38:43;37.13;;;32.70;;
20044;SDS011;10183;47.808;9.476;2024-03-29T10:41:08;33.28;;;28.38;;
20044;SDS011;10183;47.808;9.476;2024-03-29T10:43:35;30.20;;;25.63;;
20044;SDS011;10183;47.808;9.476;2024-03-29T10:46:03;63.08;;;52.28;;
20044;SDS011;10183;47.808;9.476;2024-03-29T10:48:30;62.22;;;55.10;;
20044;SDS011;10183;47.808;9.476;2024-03-29T10:51:01;37.45;;;33.38;;
20044;SDS011;10183;47.808;9.476;2024-03-29T10:53:27;45.00;;;40.20;;
20044;SDS011;10183;47.808;9.476;2024-03-29T10:55:56;36.63;;;32.08;;
20044;SDS011;10183;47.808;9.476;2024-03-29T10:58:23;38.20;;;34.10;;
20044;SDS011;10183;47.808;9.476;2024-03-29T11:00:53;34.25;;;29.55;;
20044;SDS011;10183;47.808;9.476;2024-03-29T11:03:37;34.78;;;30.05;;
20044;SDS011;10183;47.808;9.476;2024-03-29T11:06:06;48.40;;;40.50;;
20044;SDS011;10183;47.808;9.476;2024-03-29T11:08:33;53.22;;;47.55;;
20044;SDS011;10183;47.808;9.476;2024-03-29T11:11:03;67.93;;;58.83;;
20044;SDS011;10183;47.808;9.476;2024-03-29T11:13:47;66.55;;;58.03;;
20044;SDS011;10183;47.808;9.476;2024-03-29T11:16:18;40.33;;;36.00;;
20044;SDS011;10183;47.808;9.476;2024-03-29T11:18:45;35.28;;;29.80;;
20044;SDS011;10183;47.808;9.476;2024-03-29T11:21:15;34.70;;;30.40;;
20044;SDS011;10183;47.808;9.476;2024-03-29T11:23:47;34.63;;;29.85;;
20044;SDS011;10183;47.808;9.476;2024-03-29T11:26:18;37.65;;;33.65;;
20044;SDS011;10183;47.808;9.476;2024-03-29T11:28:51;34.25;;;30.00;;
20044;SDS011;10183;47.808;9.476;2024-03-29T11:31:17;38.90;;;34.90;;
20044;SDS011;10183;47.808;9.476;2024-03-29T11:33:47;41.83;;;37.53;;
20044;SDS011;10183;47.808;9.476;2024-03-29T11:36:14;38.03;;;34.03;;
20044;SDS011;10183;47.808;9.476;2024-03-29T11:38:48;37.38;;;33.38;;
20044;SDS011;10183;47.808;9.476;2024-03-29T11:41:16;45.63;;;40.95;;
20044;SDS011;10183;47.808;9.476;2024-03-29T11:43:43;36.42;;;32.42;;
20044;SDS011;10183;47.808;9.476;2024-03-29T11:46:10;52.95;;;47.15;;
20044;SDS011;10183;47.808;9.476;2024-03-29T11:48:37;59.38;;;53.05;;
20044;SDS011;10183;47.808;9.476;2024-03-29T11:51:04;45.92;;;41.03;;
20044;SDS011;10183;47.808;9.476;2024-03-29T11:53:31;43.35;;;38.65;;
20044;SDS011;10183;47.808;9.476;2024-03-29T11:55:58;51.60;;;46.30;;
20044;SDS011;10183;47.808;9.476;2024-03-29T11:58:25;50.33;;;45.15;;
20044;SDS011;10183;47.808;9.476;2024-03-29T12:00:52;50.95;;;45.75;;
20044;SDS011;10183;47.808;9.476;2024-03-29T12:03:19;48.28;;;43.38;;
20044;SDS011;10183;47.808;9.476;2024-03-29T12:05:47;46.25;;;41.45;;
20044;SDS011;10183;47.808;9.476;2024-03-29T12:08:15;51.60;;;46.22;;
20044;SDS011;10183;47.808;9.476;2024-03-29T12:10:41;56.92;;;51.08;;
20044;SDS011;10183;47.808;9.476;2024-03-29T12:13:07;53.78;;;48.38;;
20044;SDS011;10183;47.808;9.476;2024-03-29T12:15:34;62.92;;;56.70;;
20044;SDS011;10183;47.808;9.476;2024-03-29T12:18:00;61.42;;;54.90;;
20044;SDS011;10183;47.808;9.476;2024-03-29T12:20:36;61.47;;;55.28;;
20044;SDS011;10183;47.808;9.476;2024-03-29T12:23:03;49.10;;;44.05;;
20044;SDS011;10183;47.808;9.476;2024-03-29T12:25:30;72.95;;;64.35;;
20044;SDS011;10183;47.808;9.476;2024-03-29T12:27:57;71.40;;;63.70;;
20044;SDS011;10183;47.808;9.476;2024-03-29T12:30:23;66.32;;;59.33;;
20044;SDS011;10183;47.808;9.476;2024-03-29T12:35:28;65.55;;;58.35;;
20044;SDS011;10183;47.808;9.476;2024-03-29T12:37:57;62.60;;;56.10;;
20044;SDS011;10183;47.808;9.476;2024-03-29T12:40:28;53.20;;;47.80;;
20044;SDS011;10183;47.808;9.476;2024-03-29T12:43:04;52.28;;;46.88;;
20044;SDS011;10183;47.808;9.476;2024-03-29T12:45:31;57.67;;;51.95;;
20044;SDS011;10183;47.808;9.476;2024-03-29T12:47:57;57.95;;;52.05;;
20044;SDS011;10183;47.808;9.476;2024-03-29T12:50:30;53.10;;;47.75;;
20044;SDS011;10183;47.808;9.476;2024-03-29T12:52:58;46.88;;;42.10;;
20044;SDS011;10183;47.808;9.476;2024-03-29T12:55:25;46.88;;;42.17;;
20044;SDS011;10183;47.808;9.476;2024-03-29T12:57:55;61.20;;;54.75;;
20044;SDS011;10183;47.808;9.476;2024-03-29T13:00:21;54.70;;;49.22;;
20044;SDS011;10183;47.808;9.476;2024-03-29T13:02:47;55.78;;;49.95;;
20044;SDS011;10183;47.808;9.476;2024-03-29T13:05:13;57.40;;;51.35;;
20044;SDS011;10183;47.808;9.476;2024-03-29T13:07:39;61.63;;;55.20;;
20044;SDS011;10183;47.808;9.476;2024-03-29T13:10:05;68.85;;;57.30;;
20044;SDS011;10183;47.808;9.476;2024-03-29T13:12:37;63.72;;;57.25;;
20044;SDS011;10183;47.808;9.476;2024-03-29T13:15:14;67.90;;;59.38;;
20044;SDS011;10183;47.808;9.476;2024-03-29T13:17:47;68.28;;;61.05;;
20044;SDS011;10183;47.808;9.476;2024-03-29T13:20:14;64.70;;;57.60;;
20044;SDS011;10183;47.808;9.476;2024-03-29T13:22:41;63.03;;;53.35;;
20044;SDS011;10183;47.808;9.476;2024-03-29T13:25:09;61.63;;;54.88;;
20044;SDS011;10183;47.808;9.476;2024-03-29T13:27:36;56.13;;;50.03;;
20044;SDS011;10183;47.808;9.476;2024-03-29T13:30:05;57.80;;;51.80;;
20044;SDS011;10183;47.808;9.476;2024-03-29T13:32:32;49.03;;;44.05;;
20044;SDS011;10183;47.808;9.476;2024-03-29T13:34:58;48.70;;;43.70;;
20044;SDS011;10183;47.808;9.476;2024-03-29T13:37:25;41.88;;;37.58;;
20044;SDS011;10183;47.808;9.476;2024-03-29T13:39:52;41.90;;;37.53;;
20044;SDS011;10183;47.808;9.476;2024-03-29T13:42:18;41.55;;;37.17;;
20044;SDS011;10183;47.808;9.476;2024-03-29T13:44:44;37.97;;;33.88;;
20044;SDS011;10183;47.808;9.476;2024-03-29T13:47:11;48.63;;;43.63;;
20044;SDS011;10183;47.808;9.476;2024-03-29T13:49:41;46.63;;;41.85;;
20044;SDS011;10183;47.808;9.476;2024-03-29T13:52:07;47.08;;;42.13;;
20044;SDS011;10183;47.808;9.476;2024-03-29T13:54:33;44.00;;;39.42;;
20044;SDS011;10183;47.808;9.476;2024-03-29T13:56:59;45.42;;;40.58;;
20044;SDS011;10183;47.808;9.476;2024-03-29T13:59:25;45.83;;;40.85;;
20044;SDS011;10183;47.808;9.476;2024-03-29T14:01:52;44.97;;;40.28;;
20044;SDS011;10183;47.808;9.476;2024-03-29T14:04:17;45.75;;;40.80;;
20044;SDS011;10183;47.808;9.476;2024-03-29T14:06:43;51.60;;;46.28;;
20044;SDS011;10183;47.808;9.476;2024-03-29T14:09:09;49.40;;;44.13;;
20044;SDS011;10183;47.808;9.476;2024-03-29T14:11:34;49.38;;;40.97;;
20044;SDS011;10183;47.808;9.476;2024-03-29T14:14:00;47.63;;;42.55;;
20044;SDS011;10183;47.808;9.476;2024-03-29T14:16:25;47.00;;;41.95;;
20044;SDS011;10183;47.808;9.476;2024-03-29T14:18:51;52.08;;;46.58;;
20044;SDS011;10183;47.808;9.476;2024-03-29T14:21:17;51.88;;;46.33;;
20044;SDS011;10183;47.808;9.476;2024-03-29T14:23:42;44.35;;;38.45;;